Terminal Aerodrome Forecast
Issued by NWS Indianapolis, IN

Home | Current Version | Previous Version | Text Only | Print | Product List | Glossary On
Versions: 1 2 3 4 5 6 7 8 9 10 11 12 13 14 15 16 17 18 19 20 21 22 23 24 25 26
000
FTUS43 KIND 232000 AAA
TAFIND
TAF AMD
KIND 232026Z 2320/2424 36005KT P6SM SCT250
     FM232300 08006KT P6SM BKN100
     FM240300 10007KT P6SM SCT060 BKN100
     FM241400 13012KT P6SM BKN100
     FM242300 16012KT P6SM VCSH OVC050=

USA.gov is the U.S. government's official web portal to all federal, state and local government web resources and services.